Time;durP1;ratioP1;P1;durP2;ratioP2;P2;SDS_P1;SDS_P2;PMS_P1;PMS_P2;Temp;Humidity;BMP_temperature;BMP_pressure;BME280_temperature;BME280_humidity;BME280_pressure;Samples;Min_cycle;Max_cycle;Signal;HPM_P1;HPM_P2
2022/08/17 00:03:08;;;;;;;6.47;5.87;;;17.50;1.00;;;;;;8390331;28;20174;-68
2022/08/17 00:07:09;;;;;;;7.07;6.37;;;17.50;1.00;;;;;;8348859;28;20181;-67
2022/08/17 00:11:14;;;;;;;7.80;7.03;;;17.40;1.00;;;;;;8356473;28;20201;-68
2022/08/17 00:15:15;;;;;;;7.73;6.10;;;17.40;1.00;;;;;;8358402;28;20228;-67
2022/08/17 00:19:21;;;;;;;6.07;5.47;;;17.40;1.00;;;;;;8356165;28;20184;-67
2022/08/17 00:23:23;;;;;;;6.07;5.43;;;17.40;1.00;;;;;;8367655;28;20178;-67
2022/08/17 00:27:24;;;;;;;5.80;5.20;;;17.30;1.00;;;;;;8357312;28;20186;-67
2022/08/17 00:31:25;;;;;;;5.73;5.23;;;17.20;95.40;;;;;;8354141;28;20192;-67
2022/08/17 00:35:26;;;;;;;7.20;6.03;;;17.20;99.90;;;;;;8360526;28;20209;-75
2022/08/17 00:39:27;;;;;;;6.27;5.50;;;17.20;99.90;;;;;;8359544;28;20233;-67
2022/08/17 00:43:31;;;;;;;10.93;7.47;;;17.30;99.90;;;;;;8357449;28;20231;-68
2022/08/17 00:47:31;;;;;;;7.17;5.93;;;17.40;99.90;;;;;;8352359;28;20186;-68
2022/08/17 00:51:36;;;;;;;6.53;5.83;;;17.40;1.00;;;;;;8351611;28;20189;-68
2022/08/17 00:55:37;;;;;;;6.60;5.07;;;17.40;99.90;;;;;;8355770;28;20221;-69
2022/08/17 00:59:42;;;;;;;6.13;5.53;;;17.30;1.00;;;;;;8355104;28;20190;-68
2022/08/17 01:03:43;;;;;;;6.27;5.50;;;17.40;99.90;;;;;;8361504;28;20178;-68
2022/08/17 01:07:46;;;;;;;9.00;6.03;;;17.40;99.90;;;;;;8358076;28;20197;-67
2022/08/17 01:11:50;;;;;;;5.90;5.40;;;17.40;99.90;;;;;;8359613;28;20273;-68
2022/08/17 01:15:57;;;;;;;7.70;5.57;;;17.50;99.90;;;;;;8358467;28;20267;-67
2022/08/17 01:19:58;;;;;;;6.03;5.43;;;17.50;99.90;;;;;;8353120;28;20687;-67
2022/08/17 01:24:00;;;;;;;7.63;5.60;;;17.50;99.90;;;;;;8364529;28;20268;-67
2022/08/17 01:28:02;;;;;;;5.33;4.77;;;17.60;93.90;;;;;;8359115;28;20196;-67
2022/08/17 01:32:05;;;;;;;6.30;5.70;;;17.60;1.00;;;;;;8360640;28;20277;-68
2022/08/17 01:36:06;;;;;;;5.93;5.40;;;17.60;1.00;;;;;;8365156;28;20210;-68
2022/08/17 01:40:25;;;;;;;5.77;5.20;;;17.40;1.00;;;;;;8370582;28;20185;-67
2022/08/17 01:44:27;;;;;;;6.30;5.57;;;17.30;1.00;;;;;;8366103;28;20201;-67
2022/08/17 01:48:33;;;;;;;6.37;5.50;;;17.20;1.00;;;;;;8364327;28;20198;-67
2022/08/17 01:52:34;;;;;;;6.80;6.10;;;17.20;1.00;;;;;;8357453;28;20194;-67
2022/08/17 01:56:39;;;;;;;6.37;5.77;;;17.20;99.90;;;;;;8355408;28;20208;-68
2022/08/17 02:00:42;;;;;;;5.63;5.13;;;17.10;99.90;;;;;;8360585;28;20190;-69
2022/08/17 02:04:43;;;;;;;7.13;6.03;;;17.00;99.90;;;;;;8361565;28;20210;-68
2022/08/17 02:08:45;;;;;;;6.33;5.40;;;16.90;1.00;;;;;;8360071;28;20491;-75
2022/08/17 02:12:47;;;;;;;5.73;5.13;;;16.80;1.00;;;;;;8360295;28;20212;-67
2022/08/17 02:16:48;;;;;;;5.87;5.00;;;16.70;99.90;;;;;;8363495;28;20233;-67
2022/08/17 02:20:49;;;;;;;5.60;5.00;;;16.50;99.90;;;;;;8359197;28;20186;-68
2022/08/17 02:24:50;;;;;;;5.77;5.20;;;16.40;1.00;;;;;;8360673;28;20189;-67
2022/08/17 02:28:51;;;;;;;6.37;5.63;;;16.40;99.90;;;;;;8361106;28;20200;-67
2022/08/17 02:32:52;;;;;;;7.23;6.10;;;16.30;1.00;;;;;;8364668;28;20186;-67
2022/08/17 02:36:53;;;;;;;6.20;5.70;;;16.30;99.90;;;;;;8361752;28;20214;-67
2022/08/17 02:40:53;;;;;;;7.13;6.43;;;16.20;99.90;;;;;;8358826;28;20214;-68
2022/08/17 02:44:54;;;;;;;7.27;6.57;;;16.20;23.60;;;;;;8361886;28;20196;-67
2022/08/17 02:48:55;;;;;;;6.60;5.93;;;16.20;1.00;;;;;;8359650;28;20255;-67
2022/08/17 02:52:56;;;;;;;8.63;6.37;;;16.20;1.00;;;;;;8358790;28;20185;-67
2022/08/17 02:56:56;;;;;;;6.33;5.27;;;16.10;99.90;;;;;;8359377;28;20212;-67
2022/08/17 03:00:57;;;;;;;6.27;5.67;;;16.00;1.00;;;;;;8357762;28;20178;-68
2022/08/17 03:04:58;;;;;;;7.63;6.87;;;15.90;99.90;;;;;;8358444;28;20276;-67
2022/08/17 03:08:59;;;;;;;6.97;6.20;;;15.90;1.00;;;;;;8362342;28;20194;-68
2022/08/17 03:13:00;;;;;;;6.50;5.90;;;15.80;90.70;;;;;;8359871;28;20201;-67
2022/08/17 03:17:01;;;;;;;6.77;6.17;;;15.80;99.90;;;;;;8361736;28;20205;-68
2022/08/17 03:21:03;;;;;;;8.60;7.43;;;15.80;1.00;;;;;;8360580;28;20173;-68
2022/08/17 03:25:05;;;;;;;10.03;7.90;;;15.80;99.90;;;;;;8365748;28;20178;-67
2022/08/17 03:29:06;;;;;;;7.60;6.70;;;15.70;99.90;;;;;;8356828;28;20222;-69
2022/08/17 03:33:09;;;;;;;7.93;6.97;;;15.70;99.90;;;;;;8362535;28;20255;-68
2022/08/17 03:37:09;;;;;;;7.33;6.60;;;15.70;99.90;;;;;;8360194;28;20209;-67
2022/08/17 03:41:12;;;;;;;9.37;6.97;;;15.70;99.90;;;;;;8353045;28;20188;-68
2022/08/17 03:45:16;;;;;;;8.73;7.83;;;15.80;99.90;;;;;;8361392;28;20281;-67
2022/08/17 03:58:06;;;;;;;8.47;7.67;;;16.00;1.00;;;;;;8352116;28;20283;-68
2022/08/17 04:02:18;;;;;;;8.60;7.23;;;16.00;1.00;;;;;;8353342;28;20182;-68
2022/08/17 04:06:19;;;;;;;7.03;6.10;;;15.90;99.90;;;;;;8358188;28;20178;-69
2022/08/17 04:10:20;;;;;;;7.97;6.80;;;15.90;99.90;;;;;;8357765;28;20537;-68
2022/08/17 04:14:21;;;;;;;8.73;6.17;;;15.90;99.90;;;;;;8357742;28;20217;-68
2022/08/17 04:18:22;;;;;;;8.33;6.30;;;15.90;99.90;;;;;;8353841;28;20201;-68
2022/08/17 04:22:24;;;;;;;7.13;6.43;;;16.20;99.90;;;;;;8354037;28;20209;-69
2022/08/17 04:26:26;;;;;;;6.83;6.20;;;16.70;99.90;;;;;;8360994;28;20177;-68
2022/08/17 04:30:30;;;;;;;7.53;6.40;;;17.30;99.90;;;;;;8358415;28;20197;-68
2022/08/17 04:34:32;;;;;;;8.70;6.33;;;17.70;1.00;;;;;;8364069;28;20189;-69
2022/08/17 04:38:36;;;;;;;6.93;6.10;;;18.20;99.90;;;;;;8359850;28;20208;-68
2022/08/17 04:42:37;;;;;;;7.07;6.37;;;18.60;1.00;;;;;;8354768;28;20186;-69
2022/08/17 04:46:38;;;;;;;7.37;6.23;;;18.90;92.90;;;;;;8356199;28;20186;-68
2022/08/17 04:50:43;;;;;;;6.20;5.60;;;19.30;1.00;;;;;;8363255;28;20255;-68
2022/08/17 04:54:44;;;;;;;6.63;5.90;;;19.30;99.90;;;;;;8361565;28;20193;-68
2022/08/17 04:58:47;;;;;;;5.47;4.57;;;19.40;99.90;;;;;;8359986;28;20279;-69
2022/08/17 05:02:49;;;;;;;7.10;5.37;;;19.50;99.90;;;;;;8361329;28;20194;-69
2022/08/17 05:06:50;;;;;;;6.03;4.87;;;19.50;99.90;;;;;;8365427;28;20209;-69
2022/08/17 05:10:51;;;;;;;6.30;5.43;;;19.50;99.90;;;;;;8361651;28;20185;-69
2022/08/17 05:14:52;;;;;;;5.87;5.37;;;19.60;99.90;;;;;;8369316;28;20261;-69
2022/08/17 05:18:53;;;;;;;7.03;5.50;;;19.70;99.90;;;;;;8373382;28;20182;-68
2022/08/17 05:22:57;;;;;;;6.20;5.67;;;19.70;99.90;;;;;;8355184;28;20236;-68
2022/08/17 05:26:58;;;;;;;8.40;5.43;;;19.90;1.00;;;;;;8369669;28;20186;-68
2022/08/17 05:31:01;;;;;;;5.60;5.00;;;20.00;99.90;;;;;;8364683;28;20186;-68
2022/08/17 05:35:02;;;;;;;5.50;5.00;;;20.20;99.90;;;;;;8364640;28;20236;-68
2022/08/17 05:39:03;;;;;;;8.13;4.97;;;20.40;99.90;;;;;;8363025;28;20193;-70
2022/08/17 05:43:32;;;;;;;5.83;4.73;;;20.60;99.90;;;;;;8355880;28;20209;-69
2022/08/17 05:47:36;;;;;;;6.07;4.80;;;20.90;1.00;;;;;;8360278;28;20236;-68
2022/08/17 05:52:02;;;;;;;5.37;4.87;;;21.20;1.00;;;;;;8368039;28;20190;-68
2022/08/17 05:56:11;;;;;;;7.63;5.13;;;21.40;1.00;;;;;;8359931;28;20202;-69
2022/08/17 06:00:22;;;;;;;5.87;4.73;;;21.60;99.90;;;;;;8358220;28;20355;-69
2022/08/17 06:05:00;;;;;;;6.27;5.67;;;21.80;1.00;;;;;;8359943;28;20190;-68
2022/08/17 06:09:10;;;;;;;7.10;5.90;;;21.90;50.90;;;;;;8356671;28;20186;-68
2022/08/17 06:13:24;;;;;;;7.40;6.33;;;22.00;7.60;;;;;;8377612;28;20202;-69
2022/08/17 06:17:28;;;;;;;6.87;6.17;;;22.00;1.00;;;;;;8366531;28;20206;-69
2022/08/17 06:21:34;;;;;;;8.03;6.20;;;22.20;1.00;;;;;;8360781;28;20197;-69
2022/08/17 06:25:51;;;;;;;6.93;5.73;;;22.20;1.00;;;;;;8361923;28;20217;-69
2022/08/17 06:29:55;;;;;;;6.20;5.37;;;22.40;99.90;;;;;;8365357;28;20177;-69
2022/08/17 06:33:59;;;;;;;6.10;5.50;;;22.60;99.90;;;;;;8355182;28;20191;-68
2022/08/17 06:38:21;;;;;;;5.53;5.03;;;22.70;99.90;;;;;;8363931;28;20214;-68
2022/08/17 06:42:51;;;;;;;7.87;5.80;;;22.90;99.90;;;;;;8372822;28;20268;-68
2022/08/17 06:46:57;;;;;;;6.50;5.87;;;23.10;99.90;;;;;;8356277;28;20217;-68
2022/08/17 06:51:32;;;;;;;6.67;5.47;;;23.20;99.90;;;;;;8362932;28;20212;-68
2022/08/17 06:55:57;;;;;;;5.90;5.30;;;23.40;99.90;;;;;;8361092;28;20213;-68
2022/08/17 07:00:13;;;;;;;7.90;6.37;;;23.60;99.90;;;;;;8360253;28;20196;-68
2022/08/17 07:04:28;;;;;;;7.03;5.40;;;23.80;99.90;;;;;;8365891;28;20226;-69
2022/08/17 07:08:48;;;;;;;6.20;5.60;;;23.90;99.90;;;;;;8355492;28;20201;-68
2022/08/17 07:12:54;;;;;;;10.40;6.63;;;24.20;99.90;;;;;;8356461;28;20281;-68
2022/08/17 07:16:57;;;;;;;6.20;5.47;;;24.30;99.90;;;;;;8357406;28;20214;-68
2022/08/17 07:21:11;;;;;;;7.70;6.17;;;24.50;99.90;;;;;;8357049;28;20189;-68
2022/08/17 07:25:17;;;;;;;8.47;6.50;;;24.70;99.90;;;;;;8353410;28;20194;-67
2022/08/17 07:29:19;;;;;;;9.97;6.87;;;24.90;99.90;;;;;;8371784;28;20189;-64
2022/08/17 07:33:26;;;;;;;6.80;6.10;;;25.00;99.90;;;;;;8348071;28;20213;-64
2022/08/17 07:37:31;;;;;;;7.03;6.33;;;25.10;99.90;;;;;;8366349;28;20296;-67
2022/08/17 07:41:38;;;;;;;7.77;6.93;;;25.30;99.90;;;;;;8353169;28;20201;-65
2022/08/17 07:50:27;;;;;;;7.63;6.73;;;25.60;90.50;;;;;;8350249;28;20247;-66
2022/08/17 07:54:35;;;;;;;7.82;7.10;;;25.80;99.90;;;;;;8349144;28;20186;-66
2022/08/17 07:58:36;;;;;;;7.63;6.93;;;25.90;97.00;;;;;;8346865;28;20220;-66
2022/08/17 08:02:44;;;;;;;7.05;6.35;;;26.10;84.20;;;;;;8346191;28;20177;-65
2022/08/17 08:06:53;;;;;;;6.93;5.70;;;26.40;87.60;;;;;;8370685;28;20186;-68
2022/08/17 08:11:14;;;;;;;7.35;6.47;;;26.60;43.10;;;;;;8342848;28;20201;-67
2022/08/17 08:15:31;;;;;;;8.40;7.35;;;26.80;51.50;;;;;;8350795;28;20225;-67
2022/08/17 08:19:33;;;;;;;8.30;7.00;;;26.90;42.10;;;;;;8344387;28;20223;-66
2022/08/17 08:24:08;;;;;;;8.25;6.78;;;27.00;24.70;;;;;;8351318;28;20182;-67
2022/08/17 08:28:42;;;;;;;8.52;6.50;;;27.10;29.60;;;;;;8370338;28;20197;-67
2022/08/17 08:33:02;;;;;;;7.88;6.60;;;27.20;10.80;;;;;;8352135;28;20803;-67
2022/08/17 08:37:34;;;;;;;6.97;5.50;;;27.50;5.10;;;;;;8350752;28;20199;-67
2022/08/17 08:41:49;;;;;;;6.93;5.70;;;27.80;1.00;;;;;;8348517;28;20304;-68
2022/08/17 08:46:16;;;;;;;7.07;6.20;;;28.00;1.00;;;;;;8386792;28;20181;-67
2022/08/17 08:50:39;;;;;;;7.22;5.22;;;28.20;1.00;;;;;;8353326;28;20223;-67
2022/08/17 08:55:02;;;;;;;5.57;5.07;;;28.30;1.00;;;;;;8351607;28;20217;-67
2022/08/17 08:59:22;;;;;;;6.40;5.38;;;28.60;1.00;;;;;;8351806;28;20273;-66
2022/08/17 09:03:42;;;;;;;5.72;4.82;;;28.90;1.00;;;;;;8345977;28;20181;-66
2022/08/17 09:08:20;;;;;;;4.63;4.15;;;29.00;1.00;;;;;;8364927;28;20182;-65
2022/08/17 09:12:42;;;;;;;4.53;4.13;;;29.20;1.00;;;;;;8345184;28;20291;-66
2022/08/17 09:17:05;;;;;;;5.10;4.25;;;29.60;1.00;;;;;;8352396;28;20292;-65
2022/08/17 09:21:12;;;;;;;5.75;4.40;;;29.90;1.00;;;;;;8346262;28;20831;-65
2022/08/17 09:25:25;;;;;;;4.60;4.15;;;30.20;1.00;;;;;;8347007;28;20178;-66
2022/08/17 09:29:33;;;;;;;4.55;4.15;;;30.40;1.00;;;;;;8346297;28;20178;-65
2022/08/17 09:33:42;;;;;;;4.43;4.03;;;30.50;1.00;;;;;;8347163;28;20198;-65
2022/08/17 09:38:23;;;;;;;4.78;4.03;;;30.80;1.00;;;;;;8369889;28;20293;-68
2022/08/17 09:42:44;;;;;;;7.30;3.97;;;31.10;1.00;;;;;;8353407;28;20189;-66
2022/08/17 09:46:53;;;;;;;4.43;4.03;;;31.40;1.00;;;;;;8352477;28;20190;-65
2022/08/17 09:51:07;;;;;;;5.55;4.22;;;31.60;1.00;;;;;;8356030;28;20217;-66
2022/08/17 09:55:08;;;;;;;6.55;4.07;;;31.50;1.00;;;;;;8354064;28;20202;-65
2022/08/17 09:59:27;;;;;;;4.32;3.90;;;31.70;1.00;;;;;;8351747;28;20177;-66
2022/08/17 10:03:52;;;;;;;4.43;3.42;;;32.00;1.00;;;;;;8365670;28;20178;-64
2022/08/17 10:08:32;;;;;;;4.53;4.10;;;32.10;1.00;;;;;;8350528;28;20264;-65
2022/08/17 10:12:42;;;;;;;6.57;3.97;;;32.30;1.00;;;;;;8382160;28;20228;-65
2022/08/17 10:16:54;;;;;;;4.07;3.65;;;32.50;1.00;;;;;;8341686;28;20214;-65
2022/08/17 10:26:12;;;;;;;4.63;4.07;;;32.70;1.00;;;;;;8351688;28;20378;-64
2022/08/17 10:30:20;;;;;;;4.15;3.75;;;32.70;1.00;;;;;;8349170;28;20178;-66
2022/08/17 10:34:41;;;;;;;4.68;4.28;;;32.70;1.00;;;;;;8349079;28;20189;-65
2022/08/17 10:39:24;;;;;;;5.40;4.07;;;32.60;1.00;;;;;;8360531;28;20210;-65
2022/08/17 10:44:02;;;;;;;4.20;3.80;;;32.60;1.00;;;;;;8308946;28;20215;-66
2022/08/17 10:48:06;;;;;;;6.18;3.97;;;32.80;1.00;;;;;;8347222;28;20212;-65
2022/08/17 10:52:19;;;;;;;4.80;4.05;;;32.80;1.00;;;;;;8351216;28;20237;-64
2022/08/17 10:56:21;;;;;;;5.82;4.15;;;33.00;1.00;;;;;;8366182;28;20206;-63
2022/08/17 11:00:27;;;;;;;4.43;4.03;;;33.20;1.00;;;;;;8350573;28;20250;-65
2022/08/17 11:04:37;;;;;;;5.88;4.07;;;33.40;1.00;;;;;;8368456;28;20193;-65
2022/08/17 11:09:07;;;;;;;6.45;3.97;;;33.60;1.00;;;;;;8348492;28;20232;-64
2022/08/17 11:13:26;;;;;;;7.35;4.30;;;33.90;1.00;;;;;;8378362;28;20293;-64
2022/08/17 11:18:00;;;;;;;4.28;3.90;;;34.00;1.00;;;;;;8352325;28;20248;-65
2022/08/17 11:22:19;;;;;;;4.18;3.80;;;34.00;1.00;;;;;;8348181;28;20591;-65
2022/08/17 11:26:33;;;;;;;4.45;4.05;;;34.20;1.00;;;;;;8350398;28;20757;-66
2022/08/17 11:30:48;;;;;;;4.93;4.43;;;34.20;1.00;;;;;;8352242;28;20597;-65
2022/08/17 11:35:03;;;;;;;6.45;4.18;;;34.20;1.00;;;;;;8350379;28;20179;-65
2022/08/17 11:39:23;;;;;;;5.10;3.42;;;34.40;1.00;;;;;;8350242;28;20652;-65
2022/08/17 11:44:01;;;;;;;4.90;3.55;;;34.60;1.00;;;;;;8349284;28;20192;-66
2022/08/17 11:53:00;;;;;;;5.20;3.53;;;35.30;1.00;;;;;;8348206;28;20196;-66
2022/08/17 11:57:24;;;;;;;3.65;3.35;;;35.70;1.00;;;;;;8349197;28;20205;-65
2022/08/17 12:01:28;;;;;;;8.20;3.90;;;35.70;1.00;;;;;;8344004;28;20256;-65
2022/08/17 12:05:31;;;;;;;6.28;3.38;;;35.40;1.00;;;;;;8347390;28;20185;-64
2022/08/17 12:09:37;;;;;;;4.72;3.83;;;35.20;1.00;;;;;;8348783;28;20220;-64
2022/08/17 12:13:49;;;;;;;5.72;3.50;;;35.10;1.00;;;;;;8350185;28;20311;-65
2022/08/17 12:17:52;;;;;;;3.25;3.05;;;35.00;1.00;;;;;;8348746;28;20209;-65
2022/08/17 12:21:58;;;;;;;5.85;3.60;;;34.90;1.00;;;;;;8350664;28;20264;-63
2022/08/17 12:26:18;;;;;;;5.70;3.67;;;34.90;1.00;;;;;;8348955;28;20173;-65
2022/08/17 12:30:22;;;;;;;4.35;3.38;;;34.90;1.00;;;;;;8349062;28;20220;-63
2022/08/17 12:34:38;;;;;;;3.67;3.38;;;35.00;1.00;;;;;;8349360;28;20186;-63
2022/08/17 12:38:40;;;;;;;3.50;3.20;;;34.90;1.00;;;;;;8347222;28;20209;-67
2022/08/17 12:43:00;;;;;;;4.28;3.15;;;34.60;1.00;;;;;;8346644;28;20269;-64
2022/08/17 12:47:16;;;;;;;5.97;3.58;;;34.40;1.00;;;;;;8348718;28;20190;-65
2022/08/17 12:51:17;;;;;;;4.30;3.90;;;34.20;1.00;;;;;;8361188;28;20245;-66
2022/08/17 12:55:21;;;;;;;5.65;2.88;;;34.00;1.00;;;;;;8348163;28;20208;-65
2022/08/17 12:59:22;;;;;;;4.13;2.80;;;34.00;1.00;;;;;;8346247;28;20178;-66
2022/08/17 13:03:30;;;;;;;3.15;2.95;;;34.20;1.00;;;;;;8346187;28;20273;-65
2022/08/17 13:07:41;;;;;;;3.53;2.88;;;34.40;1.00;;;;;;8349529;28;20196;-65
2022/08/17 13:11:54;;;;;;;3.45;3.17;;;34.40;1.00;;;;;;8354237;28;20259;-65
2022/08/17 13:16:02;;;;;;;3.83;3.53;;;34.40;1.00;;;;;;8354589;28;20216;-66
2022/08/17 13:20:05;;;;;;;4.25;3.05;;;34.50;1.00;;;;;;8354417;28;20213;-65
2022/08/17 13:24:32;;;;;;;6.07;3.30;;;34.50;1.00;;;;;;8355505;28;20209;-66
2022/08/17 13:28:35;;;;;;;3.50;3.20;;;34.40;1.00;;;;;;8355143;28;20188;-65
2022/08/17 13:32:43;;;;;;;5.70;3.05;;;34.50;1.00;;;;;;8353263;28;20186;-64
2022/08/17 13:36:45;;;;;;;3.33;3.03;;;34.50;1.00;;;;;;8359342;28;20198;-66
2022/08/17 13:40:51;;;;;;;3.38;3.13;;;34.50;1.00;;;;;;8353977;28;20240;-65
2022/08/17 13:44:52;;;;;;;6.13;3.45;;;34.60;1.00;;;;;;8353780;28;20185;-67
2022/08/17 13:49:20;;;;;;;6.68;3.45;;;34.80;1.00;;;;;;8352557;28;20278;-66
2022/08/17 13:53:26;;;;;;;3.28;3.08;;;34.70;1.00;;;;;;8383633;28;20194;-66
2022/08/17 13:57:30;;;;;;;5.22;3.30;;;34.60;1.00;;;;;;8371467;28;20202;-64
2022/08/17 14:01:44;;;;;;;6.65;3.47;;;34.70;1.00;;;;;;8352127;28;20178;-65
2022/08/17 14:05:46;;;;;;;3.22;2.65;;;34.40;1.00;;;;;;8352751;28;20239;-64
2022/08/17 14:09:49;;;;;;;3.90;3.10;;;34.10;1.00;;;;;;8353044;28;20186;-65
2022/08/17 14:13:50;;;;;;;4.45;2.65;;;34.10;1.00;;;;;;8347273;28;20222;-64
2022/08/17 14:17:52;;;;;;;4.93;3.00;;;33.90;1.00;;;;;;8353815;28;20336;-64
2022/08/17 14:21:57;;;;;;;5.03;3.13;;;33.80;1.00;;;;;;8348659;28;20174;-66
2022/08/17 14:25:58;;;;;;;4.18;3.55;;;33.60;1.00;;;;;;8352155;28;20178;-66
2022/08/17 14:30:00;;;;;;;4.35;3.30;;;33.20;1.00;;;;;;8359442;28;20217;-65
2022/08/17 14:34:01;;;;;;;3.60;3.30;;;32.90;1.00;;;;;;8350110;28;20198;-64
2022/08/17 14:38:01;;;;;;;3.83;3.05;;;32.90;1.00;;;;;;8350540;28;20202;-66
2022/08/17 14:42:02;;;;;;;4.35;3.35;;;33.00;1.00;;;;;;8351141;28;20212;-65
2022/08/17 14:46:04;;;;;;;4.03;3.63;;;33.20;1.00;;;;;;8344617;28;20619;-66
2022/08/17 14:50:08;;;;;;;3.80;3.50;;;33.40;1.00;;;;;;8350158;28;20231;-65
2022/08/17 14:54:09;;;;;;;3.80;3.38;;;33.70;1.00;;;;;;8352424;28;20272;-64
2022/08/17 14:58:10;;;;;;;3.92;2.92;;;33.80;1.00;;;;;;8354670;28;20289;-65
2022/08/17 15:02:11;;;;;;;4.75;3.42;;;33.90;1.00;;;;;;8350793;28;20182;-65
2022/08/17 15:06:13;;;;;;;5.43;3.28;;;34.10;1.00;;;;;;8350181;28;20209;-65
2022/08/17 15:10:15;;;;;;;3.70;3.40;;;33.90;1.00;;;;;;8353265;28;20217;-64
2022/08/17 15:14:19;;;;;;;3.55;3.25;;;33.60;1.00;;;;;;8352062;28;20259;-66
2022/08/17 15:18:20;;;;;;;4.13;3.70;;;33.40;1.00;;;;;;8348594;28;20228;-65
2022/08/17 15:22:26;;;;;;;4.90;3.70;;;33.30;1.00;;;;;;8352935;28;20203;-65
2022/08/17 15:26:26;;;;;;;5.35;3.40;;;33.50;1.00;;;;;;8353935;28;20204;-65
2022/08/17 15:30:28;;;;;;;3.85;3.55;;;33.50;1.00;;;;;;8349557;28;20222;-66
2022/08/17 15:34:29;;;;;;;4.80;3.30;;;33.40;1.00;;;;;;8348220;28;20193;-66
2022/08/17 15:38:32;;;;;;;4.10;3.70;;;33.40;1.00;;;;;;8351010;28;20300;-66
2022/08/17 15:42:34;;;;;;;4.13;3.33;;;33.20;1.00;;;;;;8348234;28;20200;-65
2022/08/17 15:46:35;;;;;;;4.00;3.10;;;32.90;1.00;;;;;;8355588;28;20618;-65
2022/08/17 15:50:36;;;;;;;3.40;3.10;;;32.80;1.00;;;;;;8344743;28;20182;-66
2022/08/17 15:54:37;;;;;;;4.25;3.25;;;33.00;1.00;;;;;;8346400;28;20223;-66
2022/08/17 15:58:41;;;;;;;5.13;3.38;;;33.20;1.00;;;;;;8348619;28;20220;-65
2022/08/17 16:02:43;;;;;;;4.32;3.28;;;33.30;1.00;;;;;;8362793;28;20213;-65
2022/08/17 16:06:43;;;;;;;3.88;3.47;;;33.20;1.00;;;;;;8352688;28;20496;-65
2022/08/17 16:10:44;;;;;;;4.45;3.75;;;33.00;1.00;;;;;;8350074;28;20192;-65
2022/08/17 16:14:47;;;;;;;4.38;3.45;;;32.70;1.00;;;;;;8347222;28;20201;-66
2022/08/17 16:18:48;;;;;;;4.28;3.88;;;32.30;1.00;;;;;;8348576;28;20351;-66
2022/08/17 16:22:49;;;;;;;4.57;3.67;;;32.10;1.00;;;;;;8347412;28;20178;-64
2022/08/17 16:26:50;;;;;;;7.80;4.07;;;31.90;1.00;;;;;;8348339;28;20178;-67
2022/08/17 16:30:50;;;;;;;7.57;4.28;;;31.70;1.00;;;;;;8349333;28;20182;-66
2022/08/17 16:34:51;;;;;;;3.95;3.63;;;31.60;1.00;;;;;;8345918;28;20193;-66
2022/08/17 16:38:52;;;;;;;8.02;3.85;;;31.50;1.00;;;;;;8347071;28;20201;-64
2022/08/17 16:42:54;;;;;;;4.10;3.63;;;31.40;1.00;;;;;;8347630;28;20181;-65
2022/08/17 16:46:56;;;;;;;6.05;3.80;;;31.30;1.00;;;;;;8354771;28;20288;-66
2022/08/17 16:50:57;;;;;;;4.05;3.75;;;31.30;1.00;;;;;;8352109;28;20182;-66
2022/08/17 16:54:59;;;;;;;5.63;3.95;;;31.20;1.00;;;;;;8354542;28;20178;-66
2022/08/17 16:59:02;;;;;;;4.38;3.47;;;31.20;1.00;;;;;;8352254;28;20213;-66
2022/08/17 17:03:18;;;;;;;5.20;3.83;;;31.10;1.00;;;;;;8353449;28;20182;-66
2022/08/17 17:07:39;;;;;;;3.80;3.40;;;31.00;1.00;;;;;;8353314;28;20193;-66
2022/08/17 17:11:46;;;;;;;3.20;3.00;;;31.00;1.00;;;;;;8369091;28;20205;-65
2022/08/17 17:15:56;;;;;;;4.00;3.58;;;31.00;1.00;;;;;;8352420;28;20220;-67
2022/08/17 17:19:59;;;;;;;4.47;3.45;;;30.90;1.00;;;;;;8354014;28;20269;-65
2022/08/17 17:24:07;;;;;;;3.92;3.63;;;30.80;1.00;;;;;;8353983;28;20185;-65
2022/08/17 17:28:23;;;;;;;4.03;3.72;;;30.70;1.00;;;;;;8353319;28;20188;-66
2022/08/17 17:32:31;;;;;;;3.97;3.67;;;30.50;1.00;;;;;;8352736;28;20186;-66
2022/08/17 17:36:44;;;;;;;3.88;3.50;;;30.40;1.00;;;;;;8355285;28;20209;-66
2022/08/17 17:40:48;;;;;;;3.83;3.50;;;30.10;1.00;;;;;;8361020;28;20185;-66
2022/08/17 17:45:34;;;;;;;3.80;3.50;;;29.90;1.00;;;;;;8354210;28;20174;-66
2022/08/17 17:49:45;;;;;;;3.50;3.20;;;29.50;1.00;;;;;;8351061;28;20282;-66
2022/08/17 17:54:11;;;;;;;4.47;4.07;;;29.20;1.00;;;;;;8342618;28;20182;-65
2022/08/17 17:58:24;;;;;;;3.50;3.20;;;28.80;1.00;;;;;;8351823;28;20209;-65
2022/08/17 18:02:46;;;;;;;4.05;3.65;;;28.50;1.00;;;;;;8345625;28;20186;-68
2022/08/17 18:07:11;;;;;;;4.10;3.70;;;28.10;1.00;;;;;;8348065;28;20189;-66
2022/08/17 18:11:44;;;;;;;3.90;3.60;;;27.70;1.00;;;;;;8342608;28;20201;-67
2022/08/17 18:15:59;;;;;;;4.28;3.88;;;27.40;1.00;;;;;;8358862;28;20206;-67
2022/08/17 18:20:00;;;;;;;4.65;4.25;;;27.00;1.00;;;;;;8386836;28;20181;-67
2022/08/17 18:24:03;;;;;;;5.55;4.60;;;26.60;1.00;;;;;;8370934;28;20193;-67
2022/08/17 18:28:07;;;;;;;5.68;4.13;;;26.30;1.90;;;;;;8355405;28;20177;-67
2022/08/17 18:32:17;;;;;;;4.40;4.10;;;26.10;8.90;;;;;;8363780;28;20182;-67
2022/08/17 18:36:32;;;;;;;4.80;4.40;;;25.80;21.10;;;;;;8343766;28;20201;-68
2022/08/17 18:40:36;;;;;;;5.60;5.10;;;25.60;42.20;;;;;;8351879;28;20216;-68
2022/08/17 18:44:37;;;;;;;5.00;4.60;;;25.40;65.50;;;;;;8354674;28;20182;-68
2022/08/17 18:48:59;;;;;;;5.77;4.70;;;25.20;81.80;;;;;;8352462;28;20242;-68
2022/08/17 18:53:25;;;;;;;4.87;4.47;;;24.90;99.90;;;;;;8343607;28;20186;-68
2022/08/17 18:57:34;;;;;;;5.50;4.97;;;24.70;99.90;;;;;;8351729;28;20204;-68
2022/08/17 19:02:13;;;;;;;4.90;4.50;;;24.40;99.90;;;;;;8368628;28;20189;-69
2022/08/17 19:06:31;;;;;;;5.47;4.70;;;24.20;99.90;;;;;;8341218;28;20222;-68
2022/08/17 19:10:37;;;;;;;5.03;4.63;;;23.90;99.90;;;;;;8353472;28;20189;-68
2022/08/17 19:14:38;;;;;;;5.53;4.90;;;23.80;99.90;;;;;;8346741;28;20219;-68
2022/08/17 19:18:55;;;;;;;5.70;5.20;;;23.70;99.90;;;;;;8350587;28;20311;-68
2022/08/17 19:23:01;;;;;;;6.30;5.37;;;23.60;99.90;;;;;;8351571;28;20293;-68
2022/08/17 19:27:20;;;;;;;6.47;5.80;;;23.40;99.90;;;;;;8364154;28;20642;-68
2022/08/17 19:31:25;;;;;;;6.03;5.03;;;23.30;99.90;;;;;;8349274;28;20182;-68
2022/08/17 19:35:38;;;;;;;5.63;5.13;;;23.20;99.90;;;;;;8352774;28;20228;-69
2022/08/17 19:39:57;;;;;;;5.80;5.23;;;23.10;99.90;;;;;;8363211;28;20182;-68
2022/08/17 19:43:58;;;;;;;6.20;5.60;;;23.00;99.90;;;;;;8364488;28;20182;-68
2022/08/17 19:48:34;;;;;;;5.90;5.37;;;22.90;99.90;;;;;;8348194;28;20178;-69
2022/08/17 19:53:06;;;;;;;5.57;5.03;;;22.70;99.90;;;;;;8346976;28;20190;-68
2022/08/17 19:57:44;;;;;;;6.37;5.50;;;22.50;99.90;;;;;;8366002;28;20202;-68
2022/08/17 20:02:07;;;;;;;5.87;5.27;;;22.40;99.90;;;;;;8349195;28;20178;-68
2022/08/17 20:06:10;;;;;;;6.67;5.93;;;22.30;99.90;;;;;;8349052;28;20189;-69
2022/08/17 20:10:20;;;;;;;6.27;5.63;;;22.30;99.90;;;;;;8365302;28;20249;-68
2022/08/17 20:14:45;;;;;;;5.97;5.43;;;22.20;99.90;;;;;;8346376;28;20225;-68
2022/08/17 20:19:11;;;;;;;6.23;5.63;;;22.20;99.90;;;;;;8349679;28;20232;-68
2022/08/17 20:23:39;;;;;;;6.07;5.57;;;22.00;1.00;;;;;;8363601;28;20224;-67
2022/08/17 20:27:52;;;;;;;6.13;5.63;;;21.90;1.00;;;;;;8349032;28;20189;-68
2022/08/17 20:31:56;;;;;;;6.93;5.73;;;21.80;1.00;;;;;;8348875;28;20193;-69
2022/08/17 20:36:01;;;;;;;8.13;5.77;;;21.60;1.00;;;;;;8348654;28;20209;-68
2022/08/17 20:40:07;;;;;;;6.70;6.10;;;21.50;1.00;;;;;;8339035;28;20178;-68
2022/08/17 20:44:08;;;;;;;7.53;6.83;;;21.40;1.00;;;;;;8347901;28;20174;-68
2022/08/17 20:48:16;;;;;;;9.63;7.30;;;21.30;1.00;;;;;;8348858;28;20184;-68
2022/08/17 20:52:51;;;;;;;8.10;7.30;;;21.20;1.00;;;;;;8347096;28;20192;-68
2022/08/17 20:56:56;;;;;;;7.30;6.60;;;21.20;1.00;;;;;;8342743;28;20213;-68
2022/08/17 21:01:00;;;;;;;7.10;6.50;;;21.10;1.00;;;;;;8347875;28;20235;-68
2022/08/17 21:05:23;;;;;;;7.43;6.57;;;20.90;28.90;;;;;;8344321;28;20174;-68
2022/08/17 21:09:31;;;;;;;10.97;6.83;;;20.80;94.70;;;;;;8347476;28;20290;-68
2022/08/17 21:13:47;;;;;;;8.00;7.30;;;20.70;99.90;;;;;;8346613;28;20300;-68
2022/08/17 21:18:20;;;;;;;7.77;7.07;;;20.60;99.90;;;;;;8345930;28;20292;-68
2022/08/17 21:22:30;;;;;;;7.47;6.77;;;20.50;99.90;;;;;;8346063;28;20190;-68
2022/08/17 21:27:12;;;;;;;7.03;6.37;;;20.40;99.90;;;;;;8361840;28;20300;-68
2022/08/17 21:31:33;;;;;;;7.17;6.57;;;20.30;99.90;;;;;;8324411;28;20194;-68
2022/08/17 21:35:51;;;;;;;7.00;6.33;;;20.20;99.90;;;;;;8353451;28;20182;-68
2022/08/17 21:39:57;;;;;;;7.50;6.80;;;20.10;99.90;;;;;;8371855;28;20219;-68
2022/08/17 21:44:30;;;;;;;7.67;6.97;;;20.10;99.90;;;;;;8352185;28;20185;-68
2022/08/17 21:48:43;;;;;;;7.97;7.17;;;20.10;99.90;;;;;;8351475;28;20189;-68
2022/08/17 21:52:45;;;;;;;7.63;6.93;;;20.10;99.90;;;;;;8354110;28;20182;-68
2022/08/17 21:56:47;;;;;;;7.10;6.40;;;20.10;99.90;;;;;;8354080;28;20198;-68
2022/08/17 22:01:28;;;;;;;7.13;6.53;;;20.00;99.90;;;;;;8351205;28;20187;-68
2022/08/17 22:05:35;;;;;;;7.23;6.57;;;19.90;99.90;;;;;;8368295;28;20178;-68
2022/08/17 22:09:43;;;;;;;7.80;7.10;;;19.80;1.00;;;;;;8354251;28;20201;-68
2022/08/17 22:13:44;;;;;;;8.27;7.37;;;19.70;1.00;;;;;;8353396;28;20217;-68